Impacts METAR Board
IDs:

KLAX - Los Angeles Intl, CA, US

Updated at: 0300 UTC 06 Dec 2019
Potential Impact None Slight Moderate High
Time 05/15Z 05/16Z 05/17Z 05/18Z 05/19Z 05/20Z 05/21Z 05/22Z 05/23Z 06/00Z 06/01Z 06/02Z 06/03Z
Temp56 57 60 63 65 67 66 67 64 63 62 62 62
Dewpt52 53 53 53 51 51 53 53 52 54 55 54 54
Altim30.11 30.13 30.16 30.17 30.15 30.13 30.10 30.09 30.09 30.08 30.09 30.08 30.09
VIS10 10 10 10 10 10 10 10 10 10 10 10 10
CIG150 250 250 250 -- 250 250 250 250 250 200 200 --
CoverBKNBKNBKNBKNSCTBKNBKNBKNBKNOVCOVCBKNSCT
FltCatVFRVFRVFRVFRVFRVFRVFRVFRVFRVFRVFRVFRVFR
WX--------------------------
WDir080100701100230230240260270290340
WSpd4 5 6 5 4 0 5 7 8 7 6 3 4
WGst-- -- -- -- -- -- -- -- -- -- -- -- --
Raw hourly METARs
KLAX 051453Z VRB04KT 10SM FEW014 BKN150 BKN200 13/11 A3011 RMK AO2 SLP196 T01330111 53020 $
KLAX 051553Z 08005KT 10SM FEW017 FEW150 BKN250 14/12 A3013 RMK AO2 SLP203 T01390117
KLAX 051653Z 10006KT 10SM FEW014 BKN250 16/12 A3016 RMK AO2 SLP211 T01560117
KLAX 051753Z 07005KT 10SM FEW014 BKN250 17/12 A3017 RMK AO2 SLP214 T01720117 10172 20117 51019
KLAX 051853Z 11004KT 10SM FEW017 SCT250 18/11 A3015 RMK AO2 SLP210 T01830106
KLAX 051953Z 00000KT 10SM SCT026 BKN250 19/11 A3013 RMK AO2 SLP201 T01940106
KLAX 052053Z 23005KT 10SM SCT032 BKN250 19/12 A3010 RMK AO2 SLP191 T01890117 58023
KLAX 052153Z 23007KT 190V290 10SM SCT032 BKN250 19/12 A3009 RMK AO2 SLP187 T01940117
KLAX 052253Z 24008KT 10SM FEW035 BKN250 18/11 A3009 RMK AO2 SLP189 T01780111
KLAX 052353Z 26007KT 10SM FEW035 OVC250 17/12 A3008 RMK AO2 SLP187 T01720122 10206 20172 56005
KLAX 060053Z 27006KT 10SM FEW150 OVC200 17/13 A3009 RMK AO2 SLP188 T01670128
KLAX 060153Z 29003KT 10SM BKN200 17/12 A3008 RMK AO2 SLP186 T01670122
KLAX 060253Z 34004KT 10SM FEW200 SCT250 17/12 A3009 RMK AO2 SLP188 T01670122 52002



Page loaded:  03:52 UTC  |   07:52 PM Pacific  |   08:52 PM Mountain  |   09:52 PM Central  |   10:52 PM Eastern

 

ADVISORIES

FORECASTS

FORECASTS

OBSERVATIONS

USER TOOLS

ABOUT US